KECS/ECS METAR and TAF weather

Enter ICAO airport designator
Station Type Date Time Source
KECS METAR 2021/12/30 04:15 UTC NOAA

KECS 300415Z AUTO 15010KT 10SM SCT120 M11/M13 A2959 RMK AO2


Station Type Date Time Source
KECS Decoded METAR 2021/12/30 04:15 UTC NOAA

Station name not available
Dec 29, 2021 - 11:15 PM EST / 2021.12.30 0415 UTC
Wind: from the SSE (150 degrees) at 12 MPH (10 KT):0
Visibility: 10 mile(s):0
Sky conditions: partly cloudy
Temperature: 12 F (-11 C)
Windchill: -2 F (-19 C):1
Dew Point: 8 F (-13 C)
Relative Humidity: 85%
Pressure (altimeter): 29.59 in. Hg (1002 hPa)
ob: KECS 300415Z AUTO 15010KT 10SM SCT120 M11/M13 A2959 RMK AO2
cycle: 4

Station Type Date Time Source
KECS TAF UTC NOAA

Error!

Example: see airport list